Time;durP1;ratioP1;P1;durP2;ratioP2;P2;SDS_P1;SDS_P2;PMS_P1;PMS_P2;Temp;Humidity;BMP_temperature;BMP_pressure;BME280_temperature;BME280_humidity;BME280_pressure;Samples;Min_cycle;Max_cycle;Signal;HPM_P1;HPM_P2
2023/03/15 00:00:09;;;;;;;73.55;70.07;;;2.50;99.90;;;;;;6157272;23;21060;-86
2023/03/15 00:02:36;;;;;;;53.00;49.70;;;2.60;99.90;;;;;;6193730;23;20197;-86
2023/03/15 00:05:03;;;;;;;65.77;61.37;;;2.80;99.90;;;;;;6184271;23;20499;-86
2023/03/15 00:07:30;;;;;;;60.30;57.70;;;2.80;99.90;;;;;;6157644;23;20417;-87
2023/03/15 00:09:57;;;;;;;74.75;71.15;;;3.00;99.90;;;;;;6157674;23;20420;-86
2023/03/15 00:12:24;;;;;;;64.67;61.70;;;3.00;99.90;;;;;;6183388;23;20630;-86
2023/03/15 00:14:52;;;;;;;46.80;44.03;;;3.20;99.90;;;;;;6183377;23;20808;-86
2023/03/15 00:17:21;;;;;;;38.20;35.73;;;3.30;99.90;;;;;;6183532;23;20445;-85
2023/03/15 00:19:48;;;;;;;30.77;28.27;;;3.30;99.90;;;;;;6183998;23;20409;-86
2023/03/15 00:22:15;;;;;;;33.10;31.20;;;3.50;99.90;;;;;;6183786;23;20413;-86
2023/03/15 00:24:46;;;;;;;37.03;33.93;;;3.50;99.90;;;;;;6183588;23;20495;-86
2023/03/15 00:27:13;;;;;;;27.07;24.97;;;3.50;99.90;;;;;;6194109;23;20468;-85
2023/03/15 00:29:43;;;;;;;26.50;24.53;;;3.50;99.90;;;;;;6185114;23;20420;-86
2023/03/15 00:32:10;;;;;;;48.57;45.27;;;3.50;99.90;;;;;;6159348;23;20421;-86
2023/03/15 00:34:39;;;;;;;35.53;33.07;;;3.50;99.90;;;;;;6159165;23;20412;-86
2023/03/15 00:37:08;;;;;;;24.23;22.17;;;3.40;99.90;;;;;;6185284;23;20975;-86
2023/03/15 00:39:36;;;;;;;65.70;62.47;;;3.50;99.90;;;;;;6185081;23;20433;-87
2023/03/15 00:42:03;;;;;;;63.33;59.53;;;3.50;99.90;;;;;;6185777;23;20413;-87
2023/03/15 00:44:30;;;;;;;62.70;59.13;;;3.40;99.90;;;;;;6159404;23;20441;-86
2023/03/15 00:46:58;;;;;;;55.87;53.03;;;3.50;99.90;;;;;;6158829;23;20421;-87
2023/03/15 00:49:25;;;;;;;20.07;18.70;;;3.50;99.90;;;;;;6185499;23;20444;-87
2023/03/15 00:51:56;;;;;;;40.17;37.47;;;3.50;99.90;;;;;;6185354;23;20469;-87
2023/03/15 00:54:24;;;;;;;17.13;15.73;;;3.50;99.90;;;;;;6186226;23;20424;-88
2023/03/15 00:56:51;;;;;;;30.70;28.70;;;3.60;99.90;;;;;;6185584;23;20967;-87
2023/03/15 00:59:18;;;;;;;32.23;30.20;;;3.50;99.90;;;;;;6185750;23;20456;-87
2023/03/15 01:01:47;;;;;;;20.83;18.43;;;3.60;99.90;;;;;;6158759;23;20454;-87
2023/03/15 01:04:14;;;;;;;55.57;52.83;;;3.50;99.90;;;;;;6185892;23;20433;-88
2023/03/15 01:06:41;;;;;;;17.70;14.93;;;3.50;99.90;;;;;;6185299;23;20779;-88
2023/03/15 01:09:13;;;;;;;27.30;25.37;;;3.40;99.90;;;;;;6185912;23;20433;-88
2023/03/15 01:11:40;;;;;;;27.17;25.37;;;3.30;99.90;;;;;;6185856;23;20460;-87
2023/03/15 01:14:09;;;;;;;13.80;12.73;;;3.20;99.90;;;;;;6186278;23;20413;-89
2023/03/15 01:16:36;;;;;;;22.57;19.87;;;3.30;99.90;;;;;;6185887;23;20413;-88
2023/03/15 01:19:03;;;;;;;18.03;16.23;;;3.10;99.90;;;;;;6185709;23;20460;-87
2023/03/15 01:21:32;;;;;;;11.80;10.80;;;3.20;99.90;;;;;;6159087;23;20420;-88
2023/03/15 01:23:59;;;;;;;29.03;17.00;;;3.20;99.90;;;;;;6159513;23;20452;-88
2023/03/15 01:26:27;;;;;;;21.90;19.80;;;3.20;99.90;;;;;;6185647;23;20420;-87
2023/03/15 01:28:56;;;;;;;18.37;17.10;;;3.20;99.90;;;;;;6185559;23;20461;-87
2023/03/15 01:31:25;;;;;;;30.23;28.47;;;3.30;99.90;;;;;;6185181;23;20413;-88
2023/03/15 01:33:53;;;;;;;15.17;14.00;;;3.20;99.90;;;;;;6185798;23;20413;-88
2023/03/15 01:36:21;;;;;;;25.13;23.47;;;3.20;99.90;;;;;;6184839;23;20496;-88
2023/03/15 01:38:49;;;;;;;21.80;20.07;;;3.10;99.90;;;;;;6185177;23;20457;-87
2023/03/15 01:41:18;;;;;;;15.60;14.50;;;3.10;99.90;;;;;;6185596;23;20491;-88
2023/03/15 01:43:47;;;;;;;27.90;26.50;;;3.10;99.90;;;;;;6185737;23;21001;-87
2023/03/15 01:46:24;;;;;;;40.87;39.07;;;3.10;99.90;;;;;;6185608;23;20440;-88
2023/03/15 01:48:57;;;;;;;23.07;21.83;;;3.00;99.90;;;;;;6185145;23;20526;-88
2023/03/15 01:51:30;;;;;;;48.13;46.03;;;2.90;99.90;;;;;;6158764;23;20417;-88
2023/03/15 01:54:04;;;;;;;27.93;26.47;;;2.90;99.90;;;;;;6158822;23;20455;-88
2023/03/15 01:56:34;;;;;;;58.20;55.87;;;3.00;99.90;;;;;;6185246;23;20760;-88
2023/03/15 01:59:06;;;;;;;90.47;87.23;;;2.70;99.90;;;;;;6185416;23;20437;-88
2023/03/15 02:01:36;;;;;;;70.57;68.03;;;2.60;99.90;;;;;;6159167;23;20417;-89
2023/03/15 02:04:07;;;;;;;54.50;52.40;;;2.40;99.90;;;;;;6159863;23;20476;-90
2023/03/15 02:06:35;;;;;;;304.27;294.60;;;2.20;99.90;;;;;;6186381;23;20469;-90
2023/03/15 02:09:13;;;;;;;390.97;378.27;;;2.20;99.90;;;;;;6159789;23;20194;-89
2023/03/15 02:11:40;;;;;;;497.80;479.93;;;2.20;99.90;;;;;;6162266;23;20746;-89
2023/03/15 02:14:13;;;;;;;670.67;637.97;;;2.20;99.90;;;;;;6186596;23;20901;-89
2023/03/15 02:16:40;;;;;;;637.70;609.07;;;2.20;99.90;;;;;;6196228;23;20394;-88
2023/03/15 02:19:27;;;;;;;574.37;552.13;;;2.10;99.90;;;;;;6185453;23;20495;-88
2023/03/15 02:22:01;;;;;;;652.83;623.33;;;2.00;99.90;;;;;;6185484;23;20421;-88
2023/03/15 02:24:42;;;;;;;652.80;623.23;;;2.00;99.90;;;;;;6185738;23;20397;-88
2023/03/15 05:23:26;;;;;;;755.57;696.37;;;1.10;99.90;;;;;;6189254;23;20217;-90
2023/03/15 05:25:55;;;;;;;741.97;688.47;;;1.20;99.90;;;;;;6195580;23;20442;-90
2023/03/15 05:28:23;;;;;;;756.77;698.57;;;1.20;99.90;;;;;;6185167;23;20810;-90
2023/03/15 05:30:53;;;;;;;732.55;683.90;;;1.20;99.90;;;;;;6184622;23;20975;-90
2023/03/15 06:57:29;;;;;;;757.73;697.40;;;2.10;99.90;;;;;;6188882;23;20420;-93
2023/03/15 08:36:58;;;;;;;74.90;71.23;;;4.30;99.90;;;;;;6189450;23;20459;-92
2023/03/15 08:39:25;;;;;;;15.50;13.90;;;4.70;99.90;;;;;;6171900;23;20419;-93
2023/03/15 08:41:52;;;;;;;9.30;8.10;;;4.80;99.90;;;;;;6200713;23;20544;-93
2023/03/15 08:44:19;;;;;;;13.03;8.30;;;4.80;99.90;;;;;;6191419;23;20423;-92
2023/03/15 08:46:45;;;;;;;23.13;8.30;;;4.90;99.90;;;;;;6190826;23;20451;-93
2023/03/15 08:49:12;;;;;;;14.00;9.40;;;5.00;99.90;;;;;;6191545;23;20917;-93
2023/03/15 08:51:39;;;;;;;9.53;8.63;;;5.00;99.90;;;;;;6191663;23;20413;-93
2023/03/15 08:54:07;;;;;;;12.10;10.90;;;4.90;99.90;;;;;;6192163;23;20816;-93
2023/03/15 08:56:35;;;;;;;15.87;13.73;;;5.10;99.90;;;;;;6191511;23;20464;-93
2023/03/15 08:59:01;;;;;;;7.73;6.90;;;5.20;99.90;;;;;;6190970;23;20553;-93
2023/03/15 09:01:29;;;;;;;16.43;15.10;;;5.50;99.90;;;;;;6190769;23;20417;-93
2023/03/15 09:03:56;;;;;;;30.63;28.03;;;5.70;99.90;;;;;;6190495;23;20413;-93
2023/03/15 09:06:23;;;;;;;22.37;20.20;;;6.00;99.90;;;;;;6190959;23;21022;-93
2023/03/15 09:08:52;;;;;;;28.80;26.33;;;6.00;99.90;;;;;;6190828;23;20421;-93
2023/03/15 09:11:20;;;;;;;28.63;26.97;;;6.00;99.90;;;;;;6200820;23;20419;-93
2023/03/15 09:13:47;;;;;;;12.90;11.50;;;6.00;99.90;;;;;;6191527;23;20437;-93
2023/03/15 09:16:14;;;;;;;14.23;8.50;;;6.00;99.90;;;;;;6191056;23;20496;-93
2023/03/15 09:18:42;;;;;;;12.63;6.00;;;5.80;99.90;;;;;;6191424;23;20413;-94
2023/03/15 09:21:09;;;;;;;8.70;5.53;;;6.00;99.90;;;;;;6191578;23;20416;-94
2023/03/15 09:23:36;;;;;;;14.93;5.10;;;6.10;99.90;;;;;;6191742;23;20417;-94
2023/03/15 09:26:03;;;;;;;11.20;7.70;;;6.10;99.90;;;;;;6191239;23;20447;-94
2023/03/15 09:28:31;;;;;;;8.40;5.70;;;6.50;99.90;;;;;;6191649;23;20420;-94
2023/03/15 09:30:58;;;;;;;10.50;5.20;;;6.90;99.90;;;;;;6191826;23;20413;-94
2023/03/15 09:33:24;;;;;;;13.30;7.70;;;7.20;99.90;;;;;;6192249;23;20481;-94
2023/03/15 09:35:52;;;;;;;13.80;5.70;;;7.60;99.90;;;;;;6191915;23;20507;-93
2023/03/15 09:38:20;;;;;;;9.50;4.80;;;7.70;99.90;;;;;;6190237;23;20452;-94
2023/03/15 09:40:47;;;;;;;7.70;3.70;;;7.90;99.90;;;;;;6190521;23;20446;-94
2023/03/15 09:43:52;;;;;;;12.20;5.67;;;7.90;99.90;;;;;;6190678;23;20497;-94
2023/03/15 09:46:27;;;;;;;13.20;6.60;;;7.90;99.90;;;;;;6191042;23;20447;-94
2023/03/15 09:48:59;;;;;;;11.53;7.00;;;8.00;99.90;;;;;;6191234;23;20869;-93
2023/03/15 09:51:36;;;;;;;12.77;7.13;;;7.90;99.90;;;;;;6191721;23;20968;-94
2023/03/15 09:54:07;;;;;;;11.77;6.90;;;8.30;99.90;;;;;;6191445;23;20407;-94
2023/03/15 09:56:37;;;;;;;13.83;7.33;;;8.80;99.90;;;;;;6190705;23;20493;-94
2023/03/15 09:59:06;;;;;;;12.77;6.67;;;8.90;99.90;;;;;;6190773;23;20751;-94
2023/03/15 10:01:36;;;;;;;14.77;5.80;;;9.60;99.90;;;;;;6189941;23;20495;-92
2023/03/15 10:04:09;;;;;;;11.47;7.03;;;9.80;94.30;;;;;;6191153;23;20413;-93
2023/03/15 10:06:39;;;;;;;9.73;5.73;;;10.70;97.50;;;;;;6190943;23;20445;-92
2023/03/15 10:09:12;;;;;;;11.90;6.83;;;11.20;91.10;;;;;;6190990;23;20413;-92
2023/03/15 10:11:46;;;;;;;13.77;6.00;;;11.50;90.10;;;;;;6191177;23;20405;-92
2023/03/15 10:14:28;;;;;;;8.60;4.70;;;12.50;87.00;;;;;;6191539;23;20402;-92
2023/03/15 10:16:54;;;;;;;9.30;4.97;;;12.80;76.30;;;;;;6194464;23;20467;-92
2023/03/15 10:19:32;;;;;;;8.73;4.80;;;12.50;79.90;;;;;;6191745;23;20421;-92
2023/03/15 10:22:04;;;;;;;13.70;6.83;;;12.50;74.90;;;;;;6191214;23;20404;-93
2023/03/15 10:24:42;;;;;;;7.97;4.70;;;11.60;78.40;;;;;;6190926;23;20394;-93
2023/03/15 10:27:18;;;;;;;9.80;4.63;;;11.60;83.50;;;;;;6194215;23;20445;-93
2023/03/15 10:29:50;;;;;;;15.63;5.83;;;11.00;84.70;;;;;;6194632;23;20406;-93
2023/03/15 10:32:18;;;;;;;12.27;5.20;;;10.10;84.70;;;;;;6197036;23;20462;-94
2023/03/15 10:34:49;;;;;;;11.27;4.23;;;9.50;86.30;;;;;;6194433;23;20500;-93
2023/03/15 10:37:16;;;;;;;10.67;3.40;;;9.00;87.50;;;;;;6193770;23;20427;-92
2023/03/15 10:39:49;;;;;;;9.90;3.10;;;9.30;79.10;;;;;;6194937;23;20409;-93
2023/03/15 10:42:27;;;;;;;8.43;3.37;;;9.60;81.90;;;;;;6204837;23;20412;-91
2023/03/15 10:44:56;;;;;;;8.80;3.03;;;10.10;80.00;;;;;;6192996;23;20826;-92
2023/03/15 10:47:25;;;;;;;10.00;3.20;;;11.10;76.30;;;;;;6192680;23;20439;-93
2023/03/15 10:49:58;;;;;;;10.43;3.10;;;12.20;71.70;;;;;;6192105;23;20415;-93
2023/03/15 10:52:37;;;;;;;6.63;2.40;;;13.00;63.70;;;;;;6191972;23;20408;-92
2023/03/15 10:55:07;;;;;;;8.40;2.77;;;14.10;62.20;;;;;;6191779;23;20398;-92
2023/03/15 10:57:37;;;;;;;10.50;3.10;;;14.40;58.00;;;;;;6191678;23;20414;-92
2023/03/15 11:00:22;;;;;;;9.73;2.40;;;15.00;53.80;;;;;;6207532;23;20431;-94
2023/03/15 11:03:02;;;;;;;8.27;3.07;;;14.80;43.80;;;;;;6210045;23;20463;-94
2023/03/15 11:05:31;;;;;;;10.30;3.33;;;14.90;39.10;;;;;;6209377;23;20460;-95
2023/03/15 11:07:59;;;;;;;11.60;3.00;;;13.80;45.60;;;;;;6209988;23;20416;-92
2023/03/15 11:10:28;;;;;;;7.07;3.10;;;12.80;51.60;;;;;;6207202;23;20401;-92
2023/03/15 11:13:13;;;;;;;8.17;3.37;;;12.00;51.80;;;;;;6208641;23;20416;-93
2023/03/15 11:15:52;;;;;;;6.97;2.63;;;11.70;57.00;;;;;;6207929;23;20467;-93
2023/03/15 11:18:24;;;;;;;8.30;3.10;;;11.50;57.40;;;;;;6210172;23;20399;-94
2023/03/15 11:20:53;;;;;;;11.63;4.00;;;11.00;59.10;;;;;;6210293;23;20382;-93
2023/03/15 11:23:25;;;;;;;10.23;2.90;;;10.60;61.50;;;;;;6211212;23;20404;-92
2023/03/15 11:25:52;;;;;;;8.80;3.03;;;10.90;61.80;;;;;;6197196;23;20453;-92
2023/03/15 11:28:22;;;;;;;7.50;3.10;;;12.10;65.20;;;;;;6192084;23;20419;-93
2023/03/15 11:30:50;;;;;;;8.10;3.10;;;13.00;59.30;;;;;;6192729;23;20499;-93
2023/03/15 11:33:37;;;;;;;8.60;2.50;;;14.50;57.60;;;;;;6194247;23;20475;-93
2023/03/15 11:36:13;;;;;;;5.83;2.57;;;15.70;46.80;;;;;;6193786;23;20874;-93
2023/03/15 11:38:43;;;;;;;11.03;2.97;;;16.30;39.20;;;;;;6195954;23;20409;-93
2023/03/15 11:41:20;;;;;;;6.13;2.67;;;16.40;34.40;;;;;;6195388;23;20415;-94
2023/03/15 11:43:54;;;;;;;7.33;2.33;;;17.10;36.80;;;;;;6197327;23;20405;-93
2023/03/15 11:46:27;;;;;;;6.60;2.20;;;16.20;24.30;;;;;;6197285;23;20494;-93
2023/03/15 11:49:02;;;;;;;6.13;2.10;;;16.90;20.80;;;;;;6196328;23;20455;-93
2023/03/15 11:51:33;;;;;;;8.53;2.40;;;17.20;22.10;;;;;;6211625;23;20397;-94
2023/03/15 11:54:07;;;;;;;6.60;2.77;;;16.80;23.60;;;;;;6222144;23;20463;-93
2023/03/15 11:56:53;;;;;;;8.30;2.03;;;17.30;23.20;;;;;;6211557;23;20508;-93
2023/03/15 11:59:24;;;;;;;9.60;1.90;;;15.40;11.50;;;;;;6210465;23;20401;-92
2023/03/15 12:01:58;;;;;;;8.53;2.10;;;14.80;16.00;;;;;;6207974;23;20384;-91
2023/03/15 12:04:44;;;;;;;10.00;2.53;;;16.00;13.80;;;;;;6202771;23;20394;-93
2023/03/15 12:07:35;;;;;;;6.83;1.73;;;16.30;9.60;;;;;;6193852;23;20423;-93
2023/03/15 12:10:34;;;;;;;9.13;1.90;;;17.10;12.20;;;;;;6194440;23;20420;-92
2023/03/15 12:13:17;;;;;;;7.70;2.33;;;15.80;12.60;;;;;;6193907;23;20411;-93
2023/03/15 12:15:46;;;;;;;11.40;2.27;;;14.30;15.50;;;;;;6193827;23;20942;-93
2023/03/15 12:18:30;;;;;;;10.77;1.63;;;13.00;17.70;;;;;;6192701;23;20426;-93
2023/03/15 12:21:12;;;;;;;7.07;1.83;;;12.50;19.50;;;;;;6202599;23;20432;-92
2023/03/15 12:23:59;;;;;;;9.83;2.40;;;12.20;24.70;;;;;;6192628;23;20486;-93
2023/03/15 12:26:40;;;;;;;12.23;2.53;;;13.80;25.40;;;;;;6205038;23;20434;-93
2023/03/15 12:29:31;;;;;;;7.83;2.17;;;15.00;23.40;;;;;;6195873;23;20400;-93
2023/03/15 12:32:10;;;;;;;9.33;2.20;;;16.70;19.10;;;;;;6196824;23;20423;-92
2023/03/15 12:34:58;;;;;;;5.20;1.90;;;17.10;12.10;;;;;;6205316;23;20424;-93
2023/03/15 12:37:39;;;;;;;5.23;1.93;;;17.50;9.10;;;;;;6205899;23;20442;-93
2023/03/15 12:40:38;;;;;;;12.60;3.47;;;18.40;11.10;;;;;;6205664;23;20417;-93
2023/03/15 12:43:07;;;;;;;6.57;2.00;;;18.50;7.30;;;;;;6208421;23;20397;-93
2023/03/15 12:45:59;;;;;;;9.70;2.10;;;18.30;3.30;;;;;;6209901;23;20489;-93
2023/03/15 12:48:36;;;;;;;7.63;1.70;;;17.90;4.70;;;;;;6209506;23;20497;-93
2023/03/15 12:51:34;;;;;;;10.53;2.63;;;19.40;4.10;;;;;;6209007;23;20408;-93
2023/03/15 12:54:13;;;;;;;5.60;2.37;;;18.40;5.60;;;;;;6205360;23;20421;-93
2023/03/15 12:57:00;;;;;;;7.73;2.57;;;18.10;8.60;;;;;;6206115;23;20445;-93
2023/03/15 12:59:56;;;;;;;8.97;2.27;;;17.50;9.50;;;;;;6207762;23;20469;-93
2023/03/15 13:02:32;;;;;;;12.73;2.33;;;16.00;11.50;;;;;;6203251;23;20475;-93
2023/03/15 13:05:16;;;;;;;10.97;2.30;;;15.90;10.10;;;;;;6204142;23;20444;-93
2023/03/15 13:08:19;;;;;;;6.70;2.40;;;16.70;15.80;;;;;;6207018;23;20401;-92
2023/03/15 13:14:25;;;;;;;9.10;1.83;;;18.20;6.90;;;;;;6197880;23;20419;-93
2023/03/15 13:17:01;;;;;;;10.60;2.50;;;17.90;5.80;;;;;;6207823;23;20443;-93
2023/03/15 13:19:32;;;;;;;6.25;1.50;;;17.20;6.30;;;;;;6207954;23;20415;-90
2023/03/15 13:22:07;;;;;;;10.30;2.47;;;16.30;8.80;;;;;;6205441;23;20545;-91
2023/03/15 13:24:44;;;;;;;6.03;1.90;;;16.40;9.60;;;;;;6199145;23;20399;-93
2023/03/15 13:27:22;;;;;;;8.20;2.07;;;16.10;2.40;;;;;;6201436;23;20434;-93
2023/03/15 13:29:50;;;;;;;7.20;1.70;;;16.60;1.80;;;;;;6199887;23;20397;-94
2023/03/15 13:32:19;;;;;;;6.97;1.50;;;17.60;2.80;;;;;;6184758;23;20563;-77
2023/03/15 13:34:47;;;;;;;8.17;1.73;;;17.30;2.90;;;;;;6184931;23;20490;-77
2023/03/15 13:37:24;;;;;;;7.00;2.17;;;16.10;4.10;;;;;;6184537;23;20516;-77
2023/03/15 13:39:59;;;;;;;7.30;1.90;;;14.80;5.50;;;;;;6184892;23;20405;-77
2023/03/15 13:42:28;;;;;;;8.90;2.30;;;14.70;12.70;;;;;;6185224;23;20399;-77
2023/03/15 13:45:11;;;;;;;6.90;1.80;;;14.30;8.10;;;;;;6184814;23;20414;-77
2023/03/15 13:47:41;;;;;;;5.47;1.60;;;14.30;12.20;;;;;;6184806;23;20490;-77
2023/03/15 13:50:12;;;;;;;6.60;2.07;;;13.80;11.90;;;;;;6184633;23;20412;-77
2023/03/15 13:52:42;;;;;;;6.80;1.93;;;13.80;13.70;;;;;;6184356;23;20435;-76
2023/03/15 13:55:13;;;;;;;5.97;1.90;;;13.80;12.90;;;;;;6184499;23;20454;-76
2023/03/15 13:57:41;;;;;;;9.20;2.20;;;13.50;12.60;;;;;;6183811;23;20475;-80
2023/03/15 14:00:11;;;;;;;7.73;2.00;;;13.60;12.00;;;;;;6184205;23;20907;-76
2023/03/15 14:02:46;;;;;;;5.13;1.80;;;13.80;11.60;;;;;;6184119;23;20441;-77
2023/03/15 14:05:15;;;;;;;6.07;2.20;;;13.40;13.70;;;;;;6182042;23;20409;-76
2023/03/15 14:07:45;;;;;;;8.50;2.07;;;13.10;17.80;;;;;;6180830;23;20434;-77
2023/03/15 14:10:30;;;;;;;9.37;1.80;;;13.00;14.70;;;;;;6183251;23;20508;-76
2023/03/15 14:12:58;;;;;;;9.70;2.53;;;12.40;17.20;;;;;;6184035;23;20397;-76
2023/03/15 14:15:34;;;;;;;5.87;1.67;;;12.40;18.40;;;;;;6184114;23;20419;-76
2023/03/15 14:18:04;;;;;;;10.43;2.87;;;12.30;19.10;;;;;;6184493;23;20440;-76
2023/03/15 14:20:36;;;;;;;7.10;2.20;;;12.10;17.30;;;;;;6158867;23;20420;-76
2023/03/15 14:23:04;;;;;;;5.30;1.70;;;12.10;18.60;;;;;;6184296;23;20438;-77
2023/03/15 14:25:36;;;;;;;9.80;2.20;;;11.80;18.30;;;;;;6157359;23;20421;-76
2023/03/15 14:28:04;;;;;;;7.60;1.80;;;12.10;20.90;;;;;;6183913;23;20445;-76
2023/03/15 14:30:34;;;;;;;9.80;2.07;;;12.20;20.30;;;;;;6184116;23;20420;-77
2023/03/15 14:33:05;;;;;;;9.13;1.90;;;12.80;18.80;;;;;;6184367;23;20913;-77
2023/03/15 14:40:44;;;;;;;6.10;1.70;;;13.10;17.00;;;;;;6187766;23;20468;-85
2023/03/15 14:43:11;;;;;;;17.93;2.30;;;12.60;16.30;;;;;;6158189;23;20412;-86
2023/03/15 14:45:40;;;;;;;9.83;2.50;;;12.20;17.40;;;;;;6184355;23;20409;-86
2023/03/15 14:48:11;;;;;;;8.40;2.20;;;12.10;20.00;;;;;;6184342;23;20532;-85
2023/03/15 14:50:40;;;;;;;19.67;2.30;;;12.30;20.50;;;;;;6157899;23;20423;-85
2023/03/15 14:53:09;;;;;;;10.53;2.43;;;12.20;21.40;;;;;;6133866;23;20521;-85
2023/03/15 14:55:37;;;;;;;6.70;1.80;;;11.80;17.20;;;;;;6184387;23;20419;-85
2023/03/15 14:58:12;;;;;;;8.17;1.97;;;11.60;19.50;;;;;;6183918;23;20436;-85
2023/03/15 15:00:40;;;;;;;6.97;2.20;;;11.60;21.70;;;;;;6183904;23;20397;-85
2023/03/15 15:03:15;;;;;;;4.83;1.80;;;12.00;20.60;;;;;;6184045;23;20417;-86
2023/03/15 15:05:43;;;;;;;4.50;1.40;;;12.20;21.40;;;;;;6183394;23;21000;-86
2023/03/15 15:08:13;;;;;;;7.73;1.67;;;11.70;18.90;;;;;;6183615;23;20441;-86
2023/03/15 15:11:19;;;;;;;10.30;1.83;;;11.70;19.50;;;;;;6184688;23;20500;-84
2023/03/15 15:13:47;;;;;;;7.10;1.90;;;11.70;21.00;;;;;;6154513;23;20421;-85
2023/03/15 15:16:14;;;;;;;6.03;1.80;;;12.20;21.40;;;;;;6157635;23;20420;-86
2023/03/15 15:18:41;;;;;;;5.60;1.80;;;12.10;18.10;;;;;;6184435;23;20457;-85
2023/03/15 15:21:14;;;;;;;9.07;1.83;;;12.00;22.50;;;;;;6157631;23;20779;-85
2023/03/15 15:23:45;;;;;;;7.80;1.70;;;12.00;18.80;;;;;;6158842;23;20397;-86
2023/03/15 15:26:19;;;;;;;8.93;2.40;;;12.10;20.10;;;;;;6158294;23;20401;-86
2023/03/15 15:28:48;;;;;;;6.63;1.70;;;11.80;21.10;;;;;;6183822;23;20520;-85
2023/03/15 15:31:41;;;;;;;6.80;2.00;;;12.10;22.10;;;;;;6185056;23;20413;-87
2023/03/15 15:34:09;;;;;;;8.87;1.87;;;12.20;21.20;;;;;;6183898;23;20445;-86
2023/03/15 15:36:39;;;;;;;6.73;1.80;;;12.40;22.20;;;;;;6158643;23;20413;-86
2023/03/15 15:39:18;;;;;;;8.20;2.20;;;12.50;20.60;;;;;;6184823;23;20464;-87
2023/03/15 15:41:49;;;;;;;6.00;2.00;;;12.50;20.50;;;;;;6185486;23;20393;-85
2023/03/15 15:44:20;;;;;;;5.40;1.43;;;12.50;18.50;;;;;;6185103;23;20393;-85
2023/03/15 15:46:47;;;;;;;8.60;2.07;;;12.40;18.20;;;;;;6184471;23;20393;-85
2023/03/15 15:49:15;;;;;;;7.27;1.67;;;12.50;18.00;;;;;;6183824;23;20495;-87
2023/03/15 15:51:45;;;;;;;28.10;2.20;;;12.10;19.00;;;;;;6184490;23;20440;-85
2023/03/15 15:54:29;;;;;;;7.13;1.40;;;11.90;19.80;;;;;;6185281;23;20413;-84
2023/03/15 16:02:33;;;;;;;7.43;1.60;;;11.20;22.60;;;;;;6203728;23;20459;-95
2023/03/15 16:15:24;;;;;;;5.83;2.03;;;10.70;24.10;;;;;;6186967;23;20773;-85
2023/03/15 16:17:51;;;;;;;10.03;1.90;;;10.30;27.20;;;;;;6183927;23;20439;-85
2023/03/15 16:20:19;;;;;;;8.10;1.83;;;10.20;25.30;;;;;;6158248;23;20447;-85
2023/03/15 16:22:59;;;;;;;;;;;;;;;;;;;;;
2023/03/15 16:25:36;;;;;;;5.97;1.50;;;10.10;22.80;;;;;;6194938;23;20444;-86
2023/03/15 16:28:06;;;;;;;5.57;1.60;;;9.90;26.30;;;;;;6185343;23;20444;-85
2023/03/15 16:30:44;;;;;;;7.17;2.03;;;9.70;28.20;;;;;;6159748;23;20800;-85
2023/03/15 16:33:29;;;;;;;6.53;1.63;;;9.50;34.30;;;;;;6186026;23;20456;-85
2023/03/15 16:35:56;;;;;;;5.50;1.70;;;9.40;36.50;;;;;;6195632;23;20896;-85
2023/03/15 16:38:26;;;;;;;6.80;1.70;;;9.10;37.40;;;;;;6185754;23;20435;-85
2023/03/15 16:41:13;;;;;;;5.83;1.60;;;8.80;39.40;;;;;;6186896;23;20397;-84
2023/03/15 16:44:06;;;;;;;11.63;2.23;;;8.70;43.70;;;;;;6182177;23;20423;-85
2023/03/15 16:46:57;;;;;;;5.13;1.97;;;8.50;48.20;;;;;;6196322;23;20390;-85
2023/03/15 16:49:27;;;;;;;7.70;1.73;;;8.20;52.80;;;;;;6177465;23;20468;-85
2023/03/15 16:51:54;;;;;;;5.27;2.00;;;8.00;56.10;;;;;;6185039;23;20420;-84
2023/03/15 16:54:27;;;;;;;8.13;2.23;;;7.80;60.00;;;;;;6184163;23;20479;-85
2023/03/15 16:57:00;;;;;;;7.20;2.60;;;7.50;64.70;;;;;;6185618;23;20397;-85
2023/03/15 17:05:27;;;;;;;7.30;2.47;;;6.80;74.90;;;;;;6183482;23;20444;-84
2023/03/15 17:07:56;;;;;;;8.87;3.07;;;6.50;77.00;;;;;;6159662;23;20471;-84
2023/03/15 17:11:10;;;;;;;7.70;2.60;;;6.20;78.80;;;;;;6186081;23;20475;-83
2023/03/15 17:21:29;;;;;;;10.70;2.70;;;5.40;89.30;;;;;;6190759;23;20432;-84
2023/03/15 17:55:14;;;;;;;6.30;2.80;;;3.60;99.90;;;;;;6187863;23;20474;-84
2023/03/15 17:57:41;;;;;;;6.33;3.20;;;3.50;99.90;;;;;;6185193;23;20991;-85
2023/03/15 18:00:13;;;;;;;7.57;3.23;;;3.70;99.90;;;;;;6185316;23;20421;-85
2023/03/15 18:02:42;;;;;;;6.30;2.77;;;3.40;99.90;;;;;;6158572;23;20417;-85
2023/03/15 18:05:21;;;;;;;5.30;2.50;;;3.40;99.90;;;;;;6184383;23;20417;-85
2023/03/15 18:07:49;;;;;;;8.13;2.60;;;3.30;99.90;;;;;;6184134;23;21039;-85
2023/03/15 18:10:31;;;;;;;10.60;4.20;;;3.30;99.90;;;;;;6183370;23;20413;-85
2023/03/15 18:12:59;;;;;;;6.40;3.70;;;3.30;99.90;;;;;;6183157;23;20398;-85
2023/03/15 18:15:29;;;;;;;8.57;4.10;;;3.20;99.90;;;;;;6183785;23;20417;-85
2023/03/15 18:17:56;;;;;;;13.70;6.43;;;3.20;99.90;;;;;;6191752;23;20440;-85
2023/03/15 18:20:24;;;;;;;10.47;9.67;;;3.20;99.90;;;;;;6183724;23;20900;-85
2023/03/15 18:22:54;;;;;;;27.63;25.33;;;3.20;99.90;;;;;;6183919;23;20901;-85
2023/03/15 18:25:25;;;;;;;23.27;21.87;;;3.20;99.90;;;;;;6184393;23;20417;-86
2023/03/15 18:28:03;;;;;;;23.57;19.93;;;3.20;99.90;;;;;;6183539;23;20491;-85
2023/03/15 18:30:35;;;;;;;80.03;58.17;;;3.30;99.90;;;;;;6184413;23;20397;-85
2023/03/15 18:33:04;;;;;;;32.73;29.23;;;3.30;99.90;;;;;;6185200;23;20780;-85
2023/03/15 18:35:39;;;;;;;15.00;13.70;;;3.30;99.90;;;;;;6183661;23;20417;-85
2023/03/15 18:38:06;;;;;;;13.80;9.83;;;3.30;99.90;;;;;;6193930;23;20436;-85
2023/03/15 18:40:34;;;;;;;14.13;7.10;;;3.20;99.90;;;;;;6183755;23;20416;-85
2023/03/15 18:43:04;;;;;;;9.00;5.83;;;3.30;99.90;;;;;;6184372;23;20420;-86
2023/03/15 18:45:38;;;;;;;9.33;4.40;;;3.30;99.90;;;;;;6183596;23;20483;-85
2023/03/15 18:48:05;;;;;;;9.43;4.20;;;3.30;99.90;;;;;;6157400;23;20492;-86
2023/03/15 18:50:33;;;;;;;6.93;3.73;;;3.60;99.90;;;;;;6183120;23;20444;-86
2023/03/15 18:53:03;;;;;;;8.63;3.67;;;3.80;99.90;;;;;;6183786;23;20917;-86
2023/03/15 18:55:30;;;;;;;9.37;3.43;;;3.90;99.90;;;;;;6182966;23;20438;-86
2023/03/15 18:57:58;;;;;;;10.90;3.43;;;3.90;99.90;;;;;;6182986;23;20479;-85
2023/03/15 19:00:30;;;;;;;7.63;3.30;;;3.90;99.90;;;;;;6182955;23;20814;-85
2023/03/15 19:02:58;;;;;;;6.40;3.70;;;3.90;99.90;;;;;;6183456;23;20448;-86
2023/03/15 19:05:26;;;;;;;9.93;4.40;;;3.90;99.90;;;;;;6183331;23;20473;-85
2023/03/15 19:07:58;;;;;;;6.63;4.40;;;3.80;99.90;;;;;;6183837;23;20809;-85
2023/03/15 19:10:26;;;;;;;11.87;4.50;;;3.80;99.90;;;;;;6183330;23;20429;-85
2023/03/15 19:12:54;;;;;;;8.87;4.57;;;3.70;99.90;;;;;;6157562;23;20421;-86
2023/03/15 19:15:24;;;;;;;6.53;4.50;;;3.70;99.90;;;;;;6183540;23;20436;-85
2023/03/15 19:17:54;;;;;;;7.17;4.27;;;3.70;99.90;;;;;;6183630;23;20476;-86
2023/03/15 19:20:25;;;;;;;7.13;4.10;;;3.70;99.90;;;;;;6157485;23;20452;-86
2023/03/15 19:22:53;;;;;;;12.47;4.00;;;3.70;99.90;;;;;;6193422;23;20488;-85
2023/03/15 19:25:21;;;;;;;8.00;3.80;;;3.80;99.90;;;;;;6183576;23;20456;-86
2023/03/15 19:27:48;;;;;;;8.27;3.90;;;3.90;99.90;;;;;;6183944;23;20433;-86
2023/03/15 19:30:19;;;;;;;6.80;3.90;;;3.80;99.90;;;;;;6183188;23;20531;-85
2023/03/15 19:32:49;;;;;;;7.47;3.97;;;3.80;99.90;;;;;;6157420;23;20417;-84
2023/03/15 19:35:24;;;;;;;8.63;4.60;;;3.80;99.90;;;;;;6183200;23;20477;-85
2023/03/15 19:37:52;;;;;;;6.70;4.20;;;3.70;99.90;;;;;;6183184;23;20998;-85
2023/03/15 19:40:20;;;;;;;6.57;3.27;;;3.70;99.90;;;;;;6183502;23;20420;-85
2023/03/15 19:42:49;;;;;;;7.00;3.53;;;3.70;99.90;;;;;;6183612;23;20444;-85
2023/03/15 19:45:18;;;;;;;18.60;4.10;;;3.80;99.90;;;;;;6183194;23;20675;-85
2023/03/15 19:47:48;;;;;;;7.20;4.13;;;3.80;99.90;;;;;;6183268;23;20439;-85
2023/03/15 19:50:19;;;;;;;7.53;4.30;;;3.70;99.90;;;;;;6194466;23;20488;-85
2023/03/15 19:52:46;;;;;;;29.57;4.53;;;3.60;99.90;;;;;;6184037;23;20417;-86
2023/03/15 19:55:17;;;;;;;9.00;5.27;;;3.60;99.90;;;;;;6184010;23;20421;-85
2023/03/15 19:57:45;;;;;;;8.40;5.23;;;3.50;99.90;;;;;;6183920;23;20468;-85
2023/03/15 20:00:14;;;;;;;11.80;5.53;;;3.50;99.90;;;;;;6184327;23;20489;-86
2023/03/15 20:02:42;;;;;;;8.17;5.60;;;3.40;99.90;;;;;;6183976;23;20413;-85
2023/03/15 20:05:10;;;;;;;8.30;7.07;;;3.30;99.90;;;;;;6184939;23;20413;-87
2023/03/15 20:07:41;;;;;;;8.17;6.23;;;3.30;99.90;;;;;;6158067;23;20437;-84
2023/03/15 20:10:11;;;;;;;8.37;6.90;;;3.20;99.90;;;;;;6184121;23;20397;-84
2023/03/15 20:12:41;;;;;;;7.50;6.20;;;3.20;99.90;;;;;;6158264;23;20397;-85
2023/03/15 20:15:09;;;;;;;9.00;6.87;;;3.10;99.90;;;;;;6184384;23;20413;-85
2023/03/15 20:17:36;;;;;;;7.37;6.57;;;3.10;99.90;;;;;;6194342;23;20433;-85